METAR-berichten van nabijgelegen luchthavens

 

EHBK - Maastricht-Aachen Airport
Afstand tot station: WZW 9km
Bijgewerkt: 20-01-2019 22:55
Helder
Helder
 Wind vanuit NNO
Wind: NNO 4 km/h
Temperatuur: -4°C
Dauwpunt: -5°C
Vochtigheid: 93%
Luchtdruk: 1021 hPa
Bewolking: Helder
Zicht: 10 km
2019/01/20 21:55 EHBK 202155Z AUTO 02002KT 9999 NCD M04/M05 Q1021 NOSIG
ETNG - NATO Air Base Geilenkirchen
Afstand tot station: ONO 11km
Bijgewerkt: 20-01-2019 22:50
Helder
Helder
 Wind vanuit calm
Wind: Windstil
Temperatuur: -7°C
Dauwpunt: -7°C
Vochtigheid: 100%
Luchtdruk: 1021 hPa
Overzicht: Helder
Zicht: groter dan 10 km
2019/01/20 21:50 ETNG 202150Z 00000KT CAVOK M07/M07 Q1021